Terminal Aerodrome Forecast
Issued by NWS Charleston, WV

Current Version | Previous Version | Text Only | Print | Product List | Glossary Off
Versions: 1 2 3 4 5 6 7 8 9 10 11 12 13 14 15 16 17 18 19 20 21 22 23

000
FTUS41 KRLX 170307 AAB
TAFCRW
TAF AMD
KCRW 170307Z 1703/1724 33008KT 6SM BR BKN015 BKN025
      TEMPO 1704/1708 SCT025
     FM170800 00000KT 5SM BR FEW001 SCT025
      TEMPO 1708/1712 6SM BR BKN025
     FM171200 00000KT P6SM SCT030 BKN200
     FM171700 00000KT P6SM -RA OVC025
     FM172000 15003KT 2SM -RA BR OVC015
     FM172300 18003KT 3SM -RA BR OVC008=

USA.gov is the U.S. government's official web portal to all federal, state and local government web resources and services.